createdAt,value
2018-11-28T07:26:18.415Z,102338.11
2018-11-28T07:28:50.215Z,102344.01
2018-11-28T07:37:50.851Z,102343.89
2018-11-28T07:40:35.599Z,102343.15
2018-11-28T07:43:13.629Z,102343.08
2018-11-28T07:45:52.956Z,102343.66
2018-11-28T07:48:24.396Z,102349.06
2018-11-28T07:50:56.196Z,102336.38
2018-11-28T07:53:29.529Z,102334.36
2018-11-28T07:56:01.785Z,102335.19
2018-11-28T07:58:34.398Z,102339.89
2018-11-28T08:01:06.047Z,102337.20
2018-11-28T08:03:38.590Z,102331.84
2018-11-28T08:09:20.560Z,102331.76
2018-11-28T08:11:53.138Z,102339.84
2018-11-28T08:14:24.531Z,102337.91
2018-11-28T08:16:56.936Z,102329.42
2018-11-28T08:19:28.351Z,102328.91
2018-11-28T08:21:59.863Z,102314.86
2018-11-28T08:24:33.000Z,102325.59
2018-11-28T08:27:06.443Z,102329.31
2018-11-28T08:29:37.915Z,102331.95
2018-11-28T08:32:10.505Z,102334.14
2018-11-28T08:34:43.379Z,102326.48
2018-11-28T08:37:16.311Z,102315.35
2018-11-28T08:39:48.085Z,102321.25
2018-11-28T08:42:20.072Z,102322.36
2018-11-28T08:44:52.997Z,102322.48
2018-11-28T08:47:24.508Z,102323.00
2018-11-28T08:49:56.617Z,102318.22
2018-11-28T08:52:29.936Z,102311.86
2018-11-28T08:55:01.627Z,102306.08
2018-11-28T08:57:33.989Z,102303.09
2018-11-28T09:00:07.929Z,102308.98
2018-11-28T09:02:40.001Z,102310.77
2018-11-28T09:05:13.880Z,102312.82
2018-11-28T09:07:46.289Z,102314.75
2018-11-28T09:10:21.343Z,102307.64
2018-11-28T09:12:52.746Z,102315.81
2018-11-28T09:15:25.718Z,102236.69
2018-11-28T09:17:58.627Z,102318.23
2018-11-28T09:20:30.289Z,102318.47
2018-11-28T09:23:02.114Z,102315.20
2018-11-28T09:25:38.024Z,102320.37
2018-11-28T09:28:09.583Z,102319.19
2018-11-28T09:30:41.774Z,102319.30
2018-11-28T09:33:14.487Z,102322.07
2018-11-28T09:35:45.850Z,102321.93
2018-11-28T09:38:17.234Z,102313.75
2018-11-28T09:40:49.668Z,102316.75
2018-11-28T09:43:21.559Z,102311.58
2018-11-28T09:45:54.256Z,102318.56
2018-11-28T09:48:25.510Z,102319.61
2018-11-28T09:50:57.374Z,102317.07
2018-11-28T09:53:29.143Z,102316.12
2018-11-28T09:56:00.880Z,102308.98
2018-11-28T09:58:32.633Z,102302.13
2018-11-28T10:01:04.183Z,102297.33
2018-11-28T10:03:36.016Z,102292.50
2018-11-28T10:06:07.688Z,102293.59
2018-11-28T10:08:39.077Z,102292.97
2018-11-28T10:11:11.892Z,102294.45
2018-11-28T10:13:44.000Z,102289.72
2018-11-28T10:16:15.984Z,102280.60
2018-11-28T10:18:47.411Z,102277.72
2018-11-28T10:21:18.767Z,102267.94
2018-11-28T10:23:50.826Z,102261.83
2018-11-28T10:26:22.274Z,102263.15
2018-11-28T10:28:54.390Z,102256.22
2018-11-28T10:31:26.048Z,102254.16
2018-11-28T10:33:57.488Z,102246.98
2018-11-28T10:36:28.988Z,102251.70
2018-11-28T10:39:00.628Z,102247.91
2018-11-28T10:41:32.949Z,102253.06
2018-11-28T10:44:04.914Z,102213.61
2018-11-28T11:11:09.607Z,102238.26
2018-11-28T11:14:01.377Z,102232.80
2018-11-28T11:16:35.795Z,102238.10
2018-11-28T11:19:07.532Z,102242.16
2018-11-28T11:21:39.705Z,102236.50
2018-11-28T12:20:58.437Z,102079.36
2018-11-28T12:23:34.120Z,102187.80
2018-11-28T12:26:06.296Z,102190.84
2018-11-28T12:28:38.189Z,102191.61
2018-11-28T12:31:09.666Z,102185.20
2018-11-28T12:33:41.668Z,102180.11
2018-11-28T12:36:16.330Z,102182.34
2018-11-28T12:38:48.707Z,102173.67
2018-11-28T12:41:20.479Z,102174.80
2018-11-28T12:43:52.410Z,102173.69
2018-11-28T12:46:23.766Z,102184.08
2018-11-28T12:48:56.441Z,102183.41
2018-11-28T12:51:28.338Z,102179.77
2018-11-28T12:53:59.781Z,102171.11
2018-11-28T12:56:31.711Z,102172.56
2018-11-28T12:59:03.963Z,102166.44
2018-11-28T13:01:35.364Z,102162.08
2018-11-28T13:04:07.019Z,102162.28
2018-11-28T13:06:38.819Z,102156.77
2018-11-28T13:09:10.194Z,102153.80
2018-11-28T13:11:42.327Z,102155.17
2018-11-28T13:14:14.340Z,102156.36
2018-11-28T13:16:45.735Z,102157.89
2018-11-28T13:19:17.607Z,102154.41
2018-11-28T13:21:49.093Z,102154.41
2018-11-28T13:24:20.962Z,102144.77
2018-11-28T13:26:53.172Z,102142.83
2018-11-28T13:29:25.654Z,102136.19
2018-11-28T13:31:57.417Z,102136.40
2018-11-28T13:34:29.547Z,102140.23
2018-11-28T13:37:00.976Z,102132.01
2018-11-28T13:39:32.843Z,102131.24
2018-11-28T13:42:04.690Z,102127.77
2018-11-28T13:44:36.484Z,102121.55
2018-11-28T13:47:08.236Z,102116.59
2018-11-28T13:49:40.034Z,102115.67
2018-11-28T13:52:11.482Z,102115.56
2018-11-28T13:55:37.373Z,102102.77
2018-11-28T13:57:15.473Z,102103.48
2018-11-28T13:59:47.755Z,102109.45
2018-11-28T14:02:19.672Z,102110.99
2018-11-28T14:04:51.060Z,102108.48
2018-11-28T14:07:22.867Z,102099.65
2018-11-28T14:09:54.241Z,102093.95
2018-11-28T14:12:25.856Z,102093.02
2018-11-28T14:14:58.255Z,102088.73
2018-11-28T14:17:30.275Z,102090.06
2018-11-28T14:20:02.210Z,102087.50
2018-11-28T14:22:33.895Z,102092.60
2018-11-28T14:25:05.327Z,102091.54
2018-11-28T14:27:37.214Z,102090.79
2018-11-28T14:30:31.183Z,102098.18
2018-11-28T14:33:02.776Z,102096.39
2018-11-28T14:35:35.389Z,102097.06
2018-11-28T14:38:07.077Z,102098.18
2018-11-28T14:40:39.388Z,102096.94
2018-11-28T14:43:15.248Z,102093.31
2018-11-28T14:45:48.877Z,102090.87
2018-11-28T14:48:20.831Z,102085.62
2018-11-28T14:50:52.295Z,102085.98
2018-11-28T14:53:24.119Z,102041.54
2018-11-28T14:55:55.652Z,102064.00
2018-11-28T14:58:33.969Z,102070.16
2018-11-28T15:01:05.771Z,102071.06
2018-11-28T15:03:37.622Z,102071.20
2018-11-28T15:06:29.503Z,102074.18
2018-11-28T15:09:19.363Z,102071.20
2018-11-28T15:11:57.907Z,102062.48
2018-11-28T15:14:31.668Z,102063.52
2018-11-28T15:24:42.308Z,102046.35
2018-11-28T15:27:49.662Z,102048.38
2018-11-28T15:31:16.923Z,102050.91
2018-11-28T15:37:39.329Z,102050.91
2018-11-28T15:40:22.168Z,102042.46
2018-11-28T15:43:00.005Z,102047.21
2018-11-28T15:45:43.337Z,102057.86
2018-11-28T15:48:19.186Z,102057.18
2018-11-28T15:51:23.705Z,102012.60
2018-11-28T15:54:26.910Z,102048.94
2018-11-28T15:57:13.098Z,102035.08
2018-11-28T15:59:56.022Z,102028.45
2018-11-28T16:02:28.856Z,102029.48
2018-11-28T16:05:00.550Z,102033.31
2018-11-28T16:07:56.223Z,102039.03
2018-11-28T16:10:37.163Z,102037.03
2018-11-28T16:13:10.414Z,102034.17
2018-11-28T16:15:50.411Z,102033.66
2018-11-28T16:18:22.235Z,102029.55
2018-11-28T16:20:54.693Z,102018.47
2018-11-28T16:23:26.588Z,102020.91
2018-11-28T16:25:57.955Z,102033.26
2018-11-28T16:28:29.689Z,102025.63
2018-11-28T16:31:02.795Z,102031.78
2018-11-28T16:33:34.557Z,102024.19
2018-11-28T16:36:06.019Z,102023.19
2018-11-28T16:38:37.687Z,102008.08
2018-11-28T16:41:10.448Z,102002.27
2018-11-28T16:43:42.081Z,101998.16
2018-11-28T16:46:14.557Z,101994.88
2018-11-28T16:48:47.978Z,101998.45
2018-11-28T16:51:21.060Z,101990.55
2018-11-28T16:53:53.248Z,101995.23
2018-11-28T16:56:24.837Z,101992.23
2018-11-28T16:58:56.744Z,102002.59
2018-11-28T17:01:29.252Z,102002.07
2018-11-28T17:04:02.228Z,101998.83
2018-11-28T17:06:34.094Z,101995.97
2018-11-28T17:09:08.386Z,101991.58
2018-11-28T17:11:41.426Z,101989.70
2018-11-28T17:14:14.984Z,101955.34
2018-11-28T17:16:46.498Z,101982.80
2018-11-28T17:19:18.178Z,101975.62
2018-11-28T17:21:50.543Z,101964.36
2018-11-28T17:24:22.825Z,101957.27
2018-11-28T17:26:55.303Z,101949.72
2018-11-28T17:29:27.475Z,101957.27
2018-11-28T17:32:00.959Z,101959.41
2018-11-28T17:34:33.386Z,101967.09
2018-11-28T17:37:06.149Z,101963.59
2018-11-28T17:39:38.686Z,101956.81
2018-11-28T17:42:52.836Z,101963.24
2018-11-28T17:45:36.946Z,101949.02
2018-11-28T17:48:10.692Z,101948.39
2018-11-28T17:51:14.245Z,101944.47
2018-11-28T17:54:11.530Z,101930.70
2018-11-28T17:56:56.987Z,101945.29
2018-11-28T18:03:50.674Z,101944.31
2018-11-28T18:07:03.135Z,101948.44
2018-11-28T18:22:22.614Z,101937.94
2018-11-28T18:24:54.362Z,101942.27
2018-11-28T18:27:36.116Z,101941.09
2018-11-28T18:30:14.331Z,101929.56
2018-11-28T18:32:54.841Z,101927.78
2018-11-28T18:35:27.225Z,101919.90
2018-11-28T18:37:59.491Z,101926.33
2018-11-28T18:40:31.611Z,101925.83
2018-11-28T18:43:03.099Z,101922.25
2018-11-28T18:45:36.572Z,101913.12
2018-11-28T18:48:08.526Z,101915.62
2018-11-28T18:50:40.752Z,101911.18
2018-11-28T18:53:13.433Z,101905.75
2018-11-28T18:55:44.893Z,101902.64
2018-11-28T18:58:17.059Z,101909.81
2018-11-28T19:00:48.812Z,101913.41
2018-11-28T19:03:20.979Z,101911.14
2018-11-28T19:05:53.371Z,101913.48
2018-11-28T19:08:24.736Z,101903.88
2018-11-28T19:10:56.771Z,101909.23
2018-11-28T19:13:28.693Z,101901.90
2018-11-28T19:16:01.799Z,101919.10
2018-11-28T19:18:33.205Z,101917.97
2018-11-28T19:21:05.005Z,101908.53
2018-11-28T19:23:37.121Z,101903.22
2018-11-28T19:26:09.571Z,101902.98
2018-11-28T19:28:41.078Z,101899.09
2018-11-28T19:31:13.495Z,101904.55
2018-11-28T19:33:45.676Z,101909.42
2018-11-28T19:36:17.274Z,101901.47
2018-11-28T19:38:49.442Z,101906.77
2018-11-28T19:41:24.909Z,101911.23
2018-11-28T19:43:57.071Z,101898.58
2018-11-28T19:46:28.606Z,101904.40
2018-11-28T19:49:00.496Z,101897.45
2018-11-28T19:51:32.297Z,101901.23
2018-11-28T19:54:04.675Z,101895.42
2018-11-28T19:56:37.216Z,101894.09
2018-11-28T19:59:08.935Z,101898.08
2018-11-28T20:01:40.341Z,101892.61
2018-11-28T20:04:12.663Z,101859.56
2018-11-28T20:06:44.741Z,101875.41
2018-11-28T20:09:23.007Z,101869.75
2018-11-28T20:11:55.447Z,101868.11
2018-11-28T20:14:27.848Z,101864.83
2018-11-28T20:16:59.378Z,101863.50
2018-11-28T20:19:31.019Z,101856.27
2018-11-28T20:22:03.222Z,101851.35
2018-11-28T20:24:34.483Z,101852.64
2018-11-28T20:27:06.022Z,101860.64
2018-11-28T20:29:38.076Z,101868.25
2018-11-28T20:32:09.609Z,101867.59
2018-11-28T20:34:41.058Z,101855.27
2018-11-28T20:37:14.059Z,101852.95
2018-11-28T20:39:45.961Z,101846.52
2018-11-28T20:42:17.557Z,101839.91
2018-11-28T20:44:49.094Z,101837.13
2018-11-28T20:47:20.670Z,101837.61
2018-11-28T20:49:53.105Z,101843.73
2018-11-28T20:52:24.691Z,101810.67
2018-11-28T20:54:56.564Z,101832.39
2018-11-28T20:57:28.369Z,101820.48
2018-11-28T21:00:01.300Z,101821.17
2018-11-28T21:02:33.910Z,101823.83
2018-11-28T21:05:05.573Z,101819.88
2018-11-28T21:07:37.219Z,101825.54
2018-11-28T21:10:33.357Z,101813.59
2018-11-28T21:13:05.405Z,101819.56
2018-11-28T21:15:37.279Z,101809.61
2018-11-28T21:18:09.901Z,101806.00
2018-11-28T21:20:42.398Z,101807.71
2018-11-28T21:23:15.396Z,101796.91
2018-11-28T21:25:49.083Z,101799.72
2018-11-28T21:28:21.589Z,101801.70
2018-11-28T21:30:53.548Z,101800.89
2018-11-28T21:33:26.231Z,101808.19
2018-11-28T21:35:58.016Z,101800.09
2018-11-28T21:38:30.051Z,101790.80
2018-11-28T21:41:02.929Z,101784.19
2018-11-28T21:43:34.374Z,101785.97
2018-11-28T21:46:05.971Z,101782.48
2018-11-28T21:48:37.905Z,101781.32
2018-11-28T21:51:09.851Z,101779.11
2018-11-28T21:53:41.366Z,101775.11
2018-11-28T21:56:13.811Z,101774.28
2018-11-28T21:58:45.708Z,101777.03
2018-11-28T22:01:17.845Z,101770.78
2018-11-28T22:03:49.576Z,101775.55
2018-11-28T22:06:22.559Z,101778.33
2018-11-28T22:08:54.181Z,101770.18
2018-11-28T22:11:26.383Z,101781.30
2018-11-28T22:13:58.996Z,101777.27
2018-11-28T22:16:30.749Z,101769.11
2018-11-28T22:19:03.094Z,101765.32
2018-11-28T22:21:34.672Z,101774.67
2018-11-28T22:24:06.243Z,101769.45
2018-11-28T22:26:37.840Z,101770.25
2018-11-28T22:29:10.126Z,101759.98
2018-11-28T22:31:41.601Z,101762.45
2018-11-28T22:34:14.276Z,101758.81
2018-11-28T22:36:45.778Z,101763.73
2018-11-28T22:39:17.682Z,101763.36
2018-11-28T22:41:49.477Z,101762.70
2018-11-28T22:44:21.335Z,101759.73
2018-11-28T22:46:52.861Z,101760.55
2018-11-28T22:49:24.935Z,101760.08
2018-11-28T22:51:57.437Z,101743.66
2018-11-28T22:54:29.004Z,101743.78
2018-11-28T22:57:00.857Z,101739.64
2018-11-28T22:59:33.169Z,101725.40
2018-11-28T23:02:42.401Z,101722.23
2018-11-28T23:05:14.355Z,101720.75
2018-11-28T23:07:48.369Z,101711.16
2018-11-28T23:10:19.881Z,101716.65
2018-11-28T23:12:51.624Z,101714.78
2018-11-28T23:15:24.221Z,101713.46
2018-11-28T23:17:56.090Z,101704.17
2018-11-28T23:20:28.449Z,101705.34
2018-11-28T23:22:59.885Z,101700.55
2018-11-28T23:25:31.699Z,101695.11
2018-11-28T23:28:03.973Z,101690.49
2018-11-28T23:30:36.136Z,101675.92
2018-11-28T23:33:09.896Z,101673.45
2018-11-28T23:35:41.457Z,101675.08
2018-11-28T23:38:13.440Z,101705.30
2018-11-28T23:40:45.302Z,101698.16
2018-11-28T23:43:17.440Z,101686.09
2018-11-28T23:45:48.988Z,101702.70
2018-11-28T23:48:20.483Z,101700.36
2018-11-28T23:50:52.269Z,101699.22
2018-11-28T23:53:23.931Z,101698.39
2018-11-28T23:55:56.428Z,101696.44
2018-11-28T23:58:28.571Z,101697.73
